createdAt,value
2018-05-26T00:00:56.803Z,97319.48
2018-05-26T00:03:22.649Z,97324.00
2018-05-26T00:05:48.506Z,97326.11
2018-05-26T00:08:14.385Z,97323.73
2018-05-26T00:10:40.241Z,97319.36
2018-05-26T00:13:06.140Z,97314.19
2018-05-26T00:15:32.054Z,97314.41
2018-05-26T00:17:57.925Z,97312.96
2018-05-26T00:20:23.809Z,97308.56
2018-05-26T00:22:55.912Z,97313.88
2018-05-26T00:25:21.790Z,97312.94
2018-05-26T00:27:47.686Z,97310.44
2018-05-26T00:30:13.557Z,97306.43
2018-05-26T00:32:39.434Z,97304.73
2018-05-26T00:35:05.360Z,97298.93
2018-05-26T00:37:31.220Z,97303.87
2018-05-26T00:39:57.072Z,97298.97
2018-05-26T00:42:22.916Z,97302.63
2018-05-26T00:44:48.821Z,97305.52
2018-05-26T00:47:14.661Z,97303.05
2018-05-26T00:49:40.548Z,97296.61
2018-05-26T00:52:06.432Z,97298.48
2018-05-26T00:54:32.281Z,97301.05
2018-05-26T00:56:58.153Z,97309.61
2018-05-26T00:59:24.021Z,97305.39
2018-05-26T01:01:49.960Z,97299.72
2018-05-26T01:04:15.824Z,97295.73
2018-05-26T01:06:41.688Z,97295.03
2018-05-26T01:09:07.534Z,97299.81
2018-05-26T01:11:33.377Z,97301.29
2018-05-26T01:13:59.279Z,97295.87
2018-05-26T01:16:25.247Z,97307.24
2018-05-26T01:18:51.116Z,97310.66
2018-05-26T01:21:16.973Z,97305.16
2018-05-26T01:23:42.865Z,97308.98
2018-05-26T01:26:08.734Z,97304.48
2018-05-26T01:28:34.569Z,97311.64
2018-05-26T01:31:00.472Z,97308.09
2018-05-26T01:33:26.346Z,97306.05
2018-05-26T01:35:52.190Z,97309.17
2018-05-26T01:38:18.073Z,97301.98
2018-05-26T01:40:43.962Z,97309.34
2018-05-26T01:43:09.849Z,97303.52
2018-05-26T01:45:35.702Z,97306.79
2018-05-26T01:48:01.582Z,97308.06
2018-05-26T01:50:27.438Z,97309.31
2018-05-26T01:52:53.303Z,97305.90
2018-05-26T01:55:19.163Z,97310.56
2018-05-26T01:57:45.081Z,97313.92
2018-05-26T02:00:10.945Z,97310.67
2018-05-26T02:02:36.813Z,97309.34
2018-05-26T02:05:02.706Z,97315.33
2018-05-26T02:07:28.554Z,97319.66
2018-05-26T02:09:54.448Z,97313.95
2018-05-26T02:12:20.293Z,97308.23
2018-05-26T02:14:46.127Z,97304.52
2018-05-26T02:17:12.053Z,97307.62
2018-05-26T02:19:37.937Z,97306.06
2018-05-26T02:22:03.847Z,97299.64
2018-05-26T02:24:29.706Z,97297.53
2018-05-26T02:26:55.569Z,97291.17
2018-05-26T02:29:21.401Z,97304.55
2018-05-26T02:31:47.241Z,97299.98
2018-05-26T02:34:13.085Z,97310.22
2018-05-26T02:36:38.949Z,97315.14
2018-05-26T02:39:04.861Z,97307.66
2018-05-26T02:41:30.744Z,97308.36
2018-05-26T02:43:56.630Z,97306.88
2018-05-26T02:46:22.493Z,97310.05
2018-05-26T02:48:48.467Z,97314.30
2018-05-26T02:51:14.301Z,97311.56
2018-05-26T02:53:40.213Z,97314.66
2018-05-26T02:56:06.053Z,97321.61
2018-05-26T02:58:31.906Z,97318.95
2018-05-26T03:00:57.754Z,97316.86
2018-05-26T03:03:23.629Z,97319.78
2018-05-26T03:05:55.549Z,97326.63
2018-05-26T03:08:27.336Z,97329.39
2018-05-26T03:10:59.118Z,97328.84
2018-05-26T03:13:31.122Z,97328.58
2018-05-26T03:18:57.597Z,97325.25
2018-05-26T03:21:23.486Z,97329.27
2018-05-26T03:23:49.344Z,97332.80
2018-05-26T03:26:15.429Z,97338.08
2018-05-26T03:28:41.296Z,97339.24
2018-05-26T03:31:07.157Z,97331.98
2018-05-26T03:33:33.022Z,97336.20
2018-05-26T03:35:58.901Z,97343.23
2018-05-26T03:38:24.804Z,97349.63
2018-05-26T03:40:50.645Z,97347.41
2018-05-26T03:43:16.505Z,97343.45
2018-05-26T03:45:42.357Z,97345.12
2018-05-26T03:48:08.197Z,97345.72
2018-05-26T03:50:34.077Z,97340.44
2018-05-26T03:52:59.928Z,97341.51
2018-05-26T03:55:37.997Z,97344.23
2018-05-26T03:58:16.318Z,97344.35
2018-05-26T04:00:42.213Z,97337.91
2018-05-26T04:03:08.069Z,97342.47
2018-05-26T04:05:33.922Z,97351.22
2018-05-26T04:07:59.777Z,97345.14
2018-05-26T04:10:25.617Z,97350.19
2018-05-26T04:12:51.477Z,97343.55
2018-05-26T04:15:17.378Z,97342.64
2018-05-26T04:17:43.285Z,97338.44
2018-05-26T04:20:09.129Z,97349.13
2018-05-26T04:22:34.975Z,97342.47
2018-05-26T04:25:00.813Z,97350.36
2018-05-26T04:27:26.645Z,97349.52
2018-05-26T04:29:52.534Z,97354.63
2018-05-26T04:32:18.390Z,97357.16
2018-05-26T04:34:44.273Z,97365.22
2018-05-26T04:37:10.127Z,97363.03
2018-05-26T04:39:35.987Z,97372.06
2018-05-26T04:42:01.881Z,97373.88
2018-05-26T04:44:27.733Z,97375.22
2018-05-26T04:46:53.612Z,97377.55
2018-05-26T04:49:19.469Z,97373.27
2018-05-26T04:51:45.326Z,97385.76
2018-05-26T04:54:11.201Z,97389.78
2018-05-26T04:56:37.112Z,97386.79
2018-05-26T04:59:02.973Z,97381.80
2018-05-26T05:01:28.798Z,97386.13
2018-05-26T05:03:54.669Z,97381.84
2018-05-26T05:06:20.525Z,97384.98
2018-05-26T05:08:46.398Z,97391.00
2018-05-26T05:11:12.285Z,97387.80
2018-05-26T05:13:38.157Z,97390.67
2018-05-26T05:16:04.098Z,97395.13
2018-05-26T05:18:29.990Z,97387.27
2018-05-26T05:20:55.853Z,97390.11
2018-05-26T05:23:21.705Z,97391.32
2018-05-26T05:25:47.561Z,97387.44
2018-05-26T05:28:13.448Z,97387.14
2018-05-26T05:30:39.302Z,97391.30
2018-05-26T05:33:05.146Z,97396.10
2018-05-26T05:35:31.053Z,97394.91
2018-05-26T05:37:56.904Z,97385.33
2018-05-26T05:40:22.741Z,97386.44
2018-05-26T05:42:48.611Z,97391.05
2018-05-26T05:45:14.453Z,97388.14
2018-05-26T05:47:40.302Z,97393.31
2018-05-26T05:50:06.142Z,97396.47
2018-05-26T05:52:31.993Z,97395.37
2018-05-26T05:54:57.840Z,97395.69
2018-05-26T05:57:23.718Z,97397.73
2018-05-26T05:59:49.590Z,97399.77
2018-05-26T06:02:15.472Z,97391.23
2018-05-26T06:04:41.304Z,97392.55
2018-05-26T06:07:07.176Z,97397.66
2018-05-26T06:09:33.046Z,97393.41
2018-05-26T06:11:58.910Z,97399.66
2018-05-26T06:14:24.786Z,97400.13
2018-05-26T06:16:50.743Z,97400.73
2018-05-26T06:19:16.620Z,97403.73
2018-05-26T06:21:42.478Z,97411.12
2018-05-26T06:24:08.356Z,97404.11
2018-05-26T06:26:34.177Z,97407.54
2018-05-26T06:29:00.055Z,97400.62
2018-05-26T06:31:25.902Z,97403.76
2018-05-26T06:33:51.798Z,97402.19
2018-05-26T06:36:17.694Z,97405.45
2018-05-26T06:38:43.573Z,97409.07
2018-05-26T06:41:09.425Z,97404.01
2018-05-26T06:43:35.265Z,97408.34
2018-05-26T06:46:01.122Z,97404.87
2018-05-26T06:48:26.985Z,97409.05
2018-05-26T06:50:52.849Z,97403.55
2018-05-26T06:53:18.703Z,97414.48
2018-05-26T06:55:44.595Z,97407.80
2018-05-26T06:58:10.451Z,97410.08
2018-05-26T07:00:36.321Z,97408.30
2018-05-26T07:03:02.177Z,97401.28
2018-05-26T07:05:28.065Z,97407.58
2018-05-26T07:07:53.964Z,97392.81
2018-05-26T07:10:19.845Z,97395.41
2018-05-26T07:12:45.726Z,97395.59
2018-05-26T07:15:11.569Z,97395.02
2018-05-26T07:17:37.442Z,97398.48
2018-05-26T07:20:03.364Z,97399.53
2018-05-26T07:22:29.225Z,97396.75
2018-05-26T07:24:55.081Z,97397.67
2018-05-26T07:27:20.954Z,97394.44
2018-05-26T07:29:46.805Z,97388.45
2018-05-26T07:32:12.672Z,97388.84
2018-05-26T07:34:38.557Z,97388.26
2018-05-26T07:37:04.422Z,97391.14
2018-05-26T07:39:30.289Z,97388.13
2018-05-26T07:41:56.120Z,97389.03
2018-05-26T07:44:21.978Z,97390.08
2018-05-26T07:46:47.843Z,97387.94
2018-05-26T07:49:13.725Z,97384.70
2018-05-26T07:51:39.658Z,97378.16
2018-05-26T07:54:05.449Z,97378.49
2018-05-26T07:56:31.293Z,97383.53
2018-05-26T07:58:57.180Z,97381.42
2018-05-26T08:01:23.066Z,97387.21
2018-05-26T08:03:48.957Z,97383.92
2018-05-26T08:06:14.820Z,97387.92
2018-05-26T08:08:40.696Z,97391.51
2018-05-26T08:11:06.586Z,97396.92
2018-05-26T08:13:32.461Z,97395.73
2018-05-26T08:15:58.426Z,97390.74
2018-05-26T08:18:24.282Z,97387.88
2018-05-26T08:20:50.163Z,97389.31
2018-05-26T08:23:16.029Z,97391.28
2018-05-26T08:25:41.897Z,97397.28
2018-05-26T08:28:07.742Z,97397.23
2018-05-26T08:30:33.589Z,97393.52
2018-05-26T08:32:59.468Z,97393.41
2018-05-26T08:35:25.321Z,97394.30
2018-05-26T08:37:51.188Z,97390.30
2018-05-26T08:40:17.045Z,97394.60
2018-05-26T08:42:42.902Z,97388.32
2018-05-26T08:45:08.741Z,97390.27
2018-05-26T08:47:34.605Z,97388.76
2018-05-26T08:50:00.433Z,97386.78
2018-05-26T08:52:26.291Z,97393.05
2018-05-26T08:54:52.193Z,97393.15
2018-05-26T08:57:18.018Z,97391.88
2018-05-26T08:59:43.874Z,97387.55
2018-05-26T09:02:09.717Z,97385.27
2018-05-26T09:04:35.589Z,97388.33
2018-05-26T09:07:01.436Z,97392.67
2018-05-26T09:09:27.325Z,97392.31
2018-05-26T09:11:53.182Z,97394.52
2018-05-26T09:14:19.013Z,97389.03
2018-05-26T09:16:44.967Z,97389.69
2018-05-26T09:19:10.812Z,97388.77
2018-05-26T09:21:36.693Z,97392.09
2018-05-26T09:24:02.565Z,97394.00
2018-05-26T09:26:28.400Z,97385.55
2018-05-26T09:28:54.239Z,97388.00
2018-05-26T09:31:20.127Z,97394.35
2018-05-26T09:33:45.941Z,97377.75
2018-05-26T09:36:11.764Z,97386.22
2018-05-26T09:38:37.620Z,97380.53
2018-05-26T09:41:03.494Z,97381.02
2018-05-26T09:43:29.338Z,97376.24
2018-05-26T09:45:55.184Z,97383.11
2018-05-26T09:48:21.004Z,97378.08
2018-05-26T09:50:46.862Z,97380.11
2018-05-26T09:53:12.741Z,97384.47
2018-05-26T09:55:38.617Z,97381.61
2018-05-26T09:58:04.454Z,97374.92
2018-05-26T10:00:30.316Z,97381.48
2018-05-26T10:02:56.148Z,97381.16
2018-05-26T10:05:22.016Z,97378.87
2018-05-26T10:07:47.869Z,97376.37
2018-05-26T10:10:13.722Z,97378.11
2018-05-26T10:12:39.586Z,97369.28
2018-05-26T10:15:05.462Z,97373.54
2018-05-26T10:17:31.341Z,97365.03
2018-05-26T10:19:57.253Z,97365.53
2018-05-26T10:22:23.134Z,97359.98
2018-05-26T10:24:48.961Z,97361.33
2018-05-26T10:27:14.834Z,97359.09
2018-05-26T10:29:40.663Z,97364.99
2018-05-26T10:32:06.532Z,97360.36
2018-05-26T10:34:32.381Z,97357.63
2018-05-26T10:36:58.250Z,97366.92
2018-05-26T10:39:24.109Z,97364.98
2018-05-26T10:41:49.971Z,97362.33
2018-05-26T10:44:15.831Z,97356.45
2018-05-26T10:46:41.677Z,97355.08
2018-05-26T10:49:07.491Z,97349.00
2018-05-26T10:51:33.356Z,97361.59
2018-05-26T10:53:59.219Z,97365.83
2018-05-26T10:56:25.092Z,97362.75
2018-05-26T10:58:50.921Z,97354.45
2018-05-26T11:01:16.795Z,97351.93
2018-05-26T11:03:42.621Z,97361.16
2018-05-26T11:06:08.473Z,97361.88
2018-05-26T11:08:34.341Z,97355.67
2018-05-26T11:11:00.177Z,97368.80
2018-05-26T11:13:26.115Z,97358.03
2018-05-26T11:15:51.921Z,97362.56
2018-05-26T11:18:17.785Z,97350.69
2018-05-26T11:20:43.657Z,97352.89
2018-05-26T11:23:09.483Z,97356.03
2018-05-26T11:25:35.403Z,97354.91
2018-05-26T11:28:01.253Z,97353.82
2018-05-26T11:30:27.137Z,97347.31
2018-05-26T11:32:52.979Z,97356.61
2018-05-26T11:35:18.818Z,97349.82
2018-05-26T11:37:44.657Z,97347.12
2018-05-26T11:40:10.474Z,97349.13
2018-05-26T11:42:36.358Z,97343.97
2018-05-26T11:45:02.221Z,97351.08
2018-05-26T11:47:28.046Z,97355.19
2018-05-26T11:49:53.891Z,97348.80
2018-05-26T11:52:19.725Z,97353.49
2018-05-26T11:54:45.573Z,97348.28
2018-05-26T11:57:11.430Z,97343.78
2018-05-26T11:59:37.309Z,97346.97
2018-05-26T12:02:03.189Z,97340.79
2018-05-26T12:04:28.996Z,97341.08
2018-05-26T12:06:54.844Z,97348.55
2018-05-26T12:09:20.740Z,97349.93
2018-05-26T12:11:46.615Z,97355.80
2018-05-26T12:14:12.489Z,97348.13
2018-05-26T12:16:38.425Z,97352.28
2018-05-26T12:19:04.289Z,97344.99
2018-05-26T12:21:30.164Z,97344.55
2018-05-26T12:23:56.027Z,97347.55
2018-05-26T12:26:21.881Z,97345.31
2018-05-26T12:28:47.737Z,97346.39
2018-05-26T12:31:13.599Z,97351.14
2018-05-26T12:33:39.427Z,97341.10
2018-05-26T12:36:05.270Z,97342.05
2018-05-26T12:38:31.138Z,97342.27
2018-05-26T12:40:57.000Z,97343.28
2018-05-26T12:43:22.881Z,97332.66
2018-05-26T12:45:48.714Z,97337.97
2018-05-26T12:48:14.600Z,97339.19
2018-05-26T12:50:40.442Z,97337.39
2018-05-26T12:53:06.293Z,97344.56
2018-05-26T12:55:32.175Z,97347.76
2018-05-26T12:57:58.026Z,97341.41
2018-05-26T13:00:23.897Z,97335.05
2018-05-26T13:02:49.780Z,97329.72
2018-05-26T13:05:15.683Z,97327.08
2018-05-26T13:07:41.547Z,97327.88
2018-05-26T13:10:07.393Z,97326.31
2018-05-26T13:12:33.257Z,97329.92
2018-05-26T13:14:59.217Z,97324.54
2018-05-26T13:17:25.050Z,97324.01
2018-05-26T13:19:50.913Z,97325.61
2018-05-26T13:22:16.781Z,97320.20
2018-05-26T13:24:42.664Z,97319.77
2018-05-26T13:27:08.530Z,97316.96
2018-05-26T13:29:34.421Z,97321.93
2018-05-26T13:32:00.297Z,97315.30
2018-05-26T13:34:26.145Z,97314.09
2018-05-26T13:36:51.996Z,97312.38
2018-05-26T13:39:17.826Z,97308.09
2018-05-26T13:41:43.663Z,97308.17
2018-05-26T13:44:09.485Z,97310.52
2018-05-26T13:46:35.333Z,97304.68
2018-05-26T13:49:01.173Z,97307.22
2018-05-26T13:51:27.152Z,97298.19
2018-05-26T13:53:53.053Z,97301.86
2018-05-26T13:56:18.803Z,97298.94
2018-05-26T13:58:44.683Z,97303.29
2018-05-26T14:01:10.563Z,97301.38
2018-05-26T14:03:36.409Z,97298.89
2018-05-26T14:06:02.308Z,97292.86
2018-05-26T14:08:28.151Z,97293.38
2018-05-26T14:10:54.043Z,97293.86
2018-05-26T14:13:19.918Z,97295.19
2018-05-26T14:15:45.839Z,97291.15
2018-05-26T14:18:11.693Z,97287.36
2018-05-26T14:20:37.549Z,97289.53
2018-05-26T14:23:03.400Z,97285.14
2018-05-26T14:25:29.241Z,97281.00
2018-05-26T14:27:55.099Z,97278.76
2018-05-26T14:30:20.959Z,97277.38
2018-05-26T14:32:46.813Z,97287.23
2018-05-26T14:35:13.068Z,97280.41
2018-05-26T14:37:38.924Z,97280.45
2018-05-26T14:40:04.796Z,97279.74
2018-05-26T14:42:30.653Z,97262.05
2018-05-26T14:44:56.535Z,97262.68
2018-05-26T14:47:22.380Z,97273.32
2018-05-26T14:49:48.242Z,97267.53
2018-05-26T14:52:14.117Z,97265.84
2018-05-26T14:54:39.969Z,97269.44
2018-05-26T14:57:05.840Z,97268.34
2018-05-26T14:59:31.712Z,97271.29
2018-05-26T15:01:57.557Z,97264.08
2018-05-26T15:04:23.425Z,97264.84
2018-05-26T15:06:49.284Z,97262.28
2018-05-26T15:09:15.150Z,97267.68
2018-05-26T15:11:40.985Z,97266.42
2018-05-26T15:14:06.845Z,97271.47
2018-05-26T15:16:32.794Z,97264.91
2018-05-26T15:18:58.613Z,97258.21
2018-05-26T15:21:24.441Z,97264.95
2018-05-26T15:23:50.283Z,97265.03
2018-05-26T15:26:16.155Z,97255.39
2018-05-26T15:28:41.977Z,97263.91
2018-05-26T15:31:07.847Z,97260.02
2018-05-26T15:33:33.719Z,97256.37
2018-05-26T15:35:59.566Z,97260.98
2018-05-26T15:38:25.429Z,97264.34
2018-05-26T15:40:51.279Z,97262.84
2018-05-26T15:43:17.133Z,97252.05
2018-05-26T15:45:42.997Z,97259.59
2018-05-26T15:48:08.835Z,97255.86
2018-05-26T15:50:34.696Z,97253.39
2018-05-26T15:53:00.513Z,97246.15
2018-05-26T15:55:26.358Z,97251.72
2018-05-26T15:57:52.189Z,97248.58
2018-05-26T16:00:18.017Z,97245.00
2018-05-26T16:02:43.873Z,97246.48
2018-05-26T16:05:09.713Z,97243.59
2018-05-26T16:07:35.561Z,97243.52
2018-05-26T16:10:01.402Z,97244.88
2018-05-26T16:12:27.277Z,97239.30
2018-05-26T16:14:53.121Z,97237.09
2018-05-26T16:17:18.970Z,97236.66
2018-05-26T16:19:44.794Z,97237.02
2018-05-26T16:22:10.640Z,97235.51
2018-05-26T16:24:36.498Z,97237.16
2018-05-26T16:27:02.376Z,97242.40
2018-05-26T16:29:28.241Z,97240.83
2018-05-26T16:31:54.069Z,97245.02
2018-05-26T16:34:19.914Z,97246.10
2018-05-26T16:36:45.793Z,97252.47
2018-05-26T16:39:11.641Z,97252.49
2018-05-26T16:41:37.476Z,97249.99
2018-05-26T16:44:03.352Z,97245.59
2018-05-26T16:46:29.203Z,97244.20
2018-05-26T16:48:55.116Z,97247.78
2018-05-26T16:51:20.949Z,97249.04
2018-05-26T16:53:46.825Z,97246.75
2018-05-26T16:56:12.692Z,97250.27
2018-05-26T16:58:38.597Z,97253.23
2018-05-26T17:01:04.547Z,97249.52
2018-05-26T17:03:30.357Z,97257.33
2018-05-26T17:05:56.221Z,97254.34
2018-05-26T17:08:22.062Z,97253.91
2018-05-26T17:10:47.913Z,97248.79
2018-05-26T17:13:13.760Z,97250.92
2018-05-26T17:15:39.597Z,97251.18
2018-05-26T17:18:05.460Z,97254.20
2018-05-26T17:20:31.297Z,97254.48
2018-05-26T17:22:57.175Z,97252.48
2018-05-26T17:25:23.014Z,97253.05
2018-05-26T17:27:48.889Z,97254.95
2018-05-26T17:30:14.732Z,97260.37
2018-05-26T17:32:40.571Z,97260.00
2018-05-26T17:35:06.402Z,97260.45
2018-05-26T17:37:32.292Z,97254.20
2018-05-26T17:39:58.181Z,97252.38
2018-05-26T17:42:24.033Z,97250.25
2018-05-26T17:44:50.016Z,97252.38
2018-05-26T17:47:15.854Z,97251.98
2018-05-26T17:49:41.689Z,97253.04
2018-05-26T17:52:07.529Z,97249.19
2018-05-26T17:54:33.433Z,97246.80
2018-05-26T17:56:59.336Z,97247.00
2018-05-26T17:59:25.182Z,97248.59
2018-05-26T18:01:51.053Z,97251.19
2018-05-26T18:04:16.933Z,97249.00
2018-05-26T18:06:42.782Z,97247.02
2018-05-26T18:09:08.629Z,97247.09
2018-05-26T18:11:34.508Z,97245.70
2018-05-26T18:14:00.400Z,97247.41
2018-05-26T18:16:26.383Z,97250.67
2018-05-26T18:18:52.272Z,97251.85
2018-05-26T18:21:18.123Z,97254.16
2018-05-26T18:23:43.967Z,97254.30
2018-05-26T18:26:09.828Z,97252.53
2018-05-26T18:28:35.699Z,97258.25
2018-05-26T18:31:01.567Z,97257.27
2018-05-26T18:33:27.416Z,97259.43
2018-05-26T18:35:53.302Z,97254.49
2018-05-26T18:38:19.180Z,97254.46
2018-05-26T18:40:45.036Z,97261.61
2018-05-26T18:43:10.954Z,97265.50
2018-05-26T18:45:36.816Z,97268.75
2018-05-26T18:48:02.668Z,97260.27
2018-05-26T18:50:28.557Z,97262.58
2018-05-26T18:52:54.428Z,97262.02
2018-05-26T18:55:20.279Z,97263.57
2018-05-26T18:57:46.129Z,97265.30
2018-05-26T19:00:12.033Z,97261.07
2018-05-26T19:02:37.928Z,97259.91
2018-05-26T19:05:03.812Z,97259.90
2018-05-26T19:07:29.662Z,97261.36
2018-05-26T19:09:55.527Z,97275.26
2018-05-26T19:12:21.354Z,97276.66
2018-05-26T19:14:47.221Z,97280.52
2018-05-26T19:17:13.111Z,97275.50
2018-05-26T19:19:38.968Z,97279.69
2018-05-26T19:22:04.837Z,97281.94
2018-05-26T19:24:30.657Z,97293.44
2018-05-26T19:26:56.503Z,97292.44
2018-05-26T19:29:22.366Z,97297.81
2018-05-26T19:31:48.259Z,97294.94
2018-05-26T19:34:14.097Z,97296.67
2018-05-26T19:36:39.978Z,97303.77
2018-05-26T19:39:05.817Z,97316.10
2018-05-26T19:41:31.680Z,97308.41
2018-05-26T19:43:57.540Z,97324.95
2018-05-26T19:46:23.360Z,97322.59
2018-05-26T19:48:49.234Z,97321.48
2018-05-26T19:51:15.137Z,97326.89
2018-05-26T19:53:40.978Z,97319.42
2018-05-26T19:56:06.827Z,97321.31
2018-05-26T19:58:32.694Z,97316.13
2018-05-26T20:00:58.548Z,97321.62
2018-05-26T20:03:24.386Z,97318.39
2018-05-26T20:05:50.230Z,97317.76
2018-05-26T20:08:16.095Z,97328.14
2018-05-26T20:10:41.943Z,97323.80
2018-05-26T20:13:07.826Z,97327.32
2018-05-26T20:15:33.752Z,97331.78
2018-05-26T20:17:59.660Z,97325.48
2018-05-26T20:20:25.521Z,97324.91
2018-05-26T20:22:51.428Z,97325.78
2018-05-26T20:25:17.304Z,97315.20
2018-05-26T20:27:43.167Z,97322.34
2018-05-26T20:30:09.022Z,97330.67
2018-05-26T20:32:34.876Z,97332.43
2018-05-26T20:35:00.785Z,97332.84
2018-05-26T20:37:26.669Z,97337.16
2018-05-26T20:39:52.553Z,97335.29
2018-05-26T20:42:18.436Z,97340.95
2018-05-26T20:44:44.336Z,97340.23
2018-05-26T20:47:10.226Z,97338.21
2018-05-26T20:49:36.110Z,97332.53
2018-05-26T20:52:01.973Z,97334.70
2018-05-26T20:54:27.828Z,97337.20
2018-05-26T20:56:53.684Z,97343.95
2018-05-26T20:59:19.572Z,97345.12
2018-05-26T21:01:45.403Z,97344.55
2018-05-26T21:04:11.269Z,97352.80
2018-05-26T21:06:37.116Z,97357.50
2018-05-26T21:09:03.031Z,97360.14
2018-05-26T21:11:28.892Z,97360.74
2018-05-26T21:13:54.717Z,97364.91
2018-05-26T21:16:20.728Z,97360.19
2018-05-26T21:18:46.872Z,97358.59
2018-05-26T21:21:12.832Z,97359.44
2018-05-26T21:23:38.687Z,97366.09
2018-05-26T21:26:05.275Z,97361.19
2018-05-26T21:28:31.148Z,97362.27
2018-05-26T21:30:56.983Z,97368.89
2018-05-26T21:33:22.871Z,97369.56
2018-05-26T21:35:48.724Z,97369.91
2018-05-26T21:38:14.553Z,97370.99
2018-05-26T21:40:40.389Z,97365.25
2018-05-26T21:43:06.243Z,97367.73
2018-05-26T21:45:32.109Z,97367.31
2018-05-26T21:47:57.991Z,97369.59
2018-05-26T21:50:23.853Z,97367.98
2018-05-26T21:52:49.738Z,97370.86
2018-05-26T21:55:15.761Z,97367.80
2018-05-26T21:57:41.726Z,97364.01
2018-05-26T22:00:07.638Z,97363.34
2018-05-26T22:02:33.545Z,97362.63
2018-05-26T22:04:59.495Z,97370.45
2018-05-26T22:07:25.404Z,97366.52
2018-05-26T22:09:51.273Z,97370.97
2018-05-26T22:12:17.212Z,97375.89
2018-05-26T22:14:43.141Z,97371.86
2018-05-26T22:17:09.052Z,97381.00
2018-05-26T22:19:34.953Z,97378.26
2018-05-26T22:22:00.854Z,97374.23
2018-05-26T22:24:26.738Z,97372.88
2018-05-26T22:26:52.634Z,97372.84
2018-05-26T22:29:18.536Z,97380.81
2018-05-26T22:31:44.439Z,97381.98
2018-05-26T22:34:10.345Z,97382.38
2018-05-26T22:36:36.249Z,97389.09
2018-05-26T22:39:02.177Z,97385.16
2018-05-26T22:41:28.067Z,97384.55
2018-05-26T22:43:53.957Z,97389.73
2018-05-26T22:46:19.850Z,97387.44
2018-05-26T22:48:45.783Z,97383.89
2018-05-26T22:51:11.657Z,97383.58
2018-05-26T22:53:37.582Z,97382.02
2018-05-26T22:56:03.450Z,97381.08
2018-05-26T22:58:29.327Z,97387.70
2018-05-26T23:00:55.233Z,97383.12
2018-05-26T23:03:21.141Z,97380.86
2018-05-26T23:05:47.086Z,97379.67
2018-05-26T23:08:12.985Z,97381.29
2018-05-26T23:10:38.923Z,97376.73
2018-05-26T23:13:04.788Z,97360.81
2018-05-26T23:15:30.674Z,97372.78
2018-05-26T23:17:56.603Z,97375.01
2018-05-26T23:20:22.500Z,97367.53
2018-05-26T23:22:48.393Z,97370.58
2018-05-26T23:25:14.279Z,97370.13
2018-05-26T23:27:40.159Z,97357.16
2018-05-26T23:30:06.045Z,97356.41
2018-05-26T23:32:31.897Z,97353.31
2018-05-26T23:34:57.814Z,97352.73
2018-05-26T23:37:23.703Z,97353.20
2018-05-26T23:39:49.614Z,97356.06
2018-05-26T23:42:15.475Z,97355.05
2018-05-26T23:44:41.394Z,97345.05
2018-05-26T23:47:07.285Z,97343.80
2018-05-26T23:49:33.131Z,97347.84
2018-05-26T23:51:59.011Z,97346.62
2018-05-26T23:54:24.877Z,97338.42
2018-05-26T23:56:50.776Z,97337.47
2018-05-26T23:59:16.694Z,97338.50
